sensor_id;sensor_type;location;lat;lon;timestamp;P1;durP1;ratioP1;P2;durP2;ratioP2
76063;SDS011;64762;52.006;8.424;2023-08-08T00:01:09;10.30;;;3.73;;
76063;SDS011;64762;52.006;8.424;2023-08-08T00:03:34;9.73;;;3.07;;
76063;SDS011;64762;52.006;8.424;2023-08-08T00:05:59;11.57;;;4.00;;
76063;SDS011;64762;52.006;8.424;2023-08-08T00:08:25;9.20;;;4.67;;
76063;SDS011;64762;52.006;8.424;2023-08-08T00:10:50;8.20;;;3.83;;
76063;SDS011;64762;52.006;8.424;2023-08-08T00:13:15;8.70;;;4.20;;
76063;SDS011;64762;52.006;8.424;2023-08-08T00:15:41;10.47;;;4.07;;
76063;SDS011;64762;52.006;8.424;2023-08-08T00:18:06;12.50;;;4.32;;
76063;SDS011;64762;52.006;8.424;2023-08-08T00:20:32;10.20;;;3.77;;
76063;SDS011;64762;52.006;8.424;2023-08-08T00:22:57;9.77;;;3.90;;
76063;SDS011;64762;52.006;8.424;2023-08-08T00:25:22;9.53;;;3.30;;
76063;SDS011;64762;52.006;8.424;2023-08-08T00:27:48;11.33;;;3.50;;
76063;SDS011;64762;52.006;8.424;2023-08-08T00:30:14;8.55;;;3.67;;
76063;SDS011;64762;52.006;8.424;2023-08-08T00:32:40;8.97;;;4.00;;
76063;SDS011;64762;52.006;8.424;2023-08-08T00:35:05;9.43;;;3.63;;
76063;SDS011;64762;52.006;8.424;2023-08-08T00:37:31;8.75;;;3.75;;
76063;SDS011;64762;52.006;8.424;2023-08-08T00:39:56;8.83;;;3.40;;
76063;SDS011;64762;52.006;8.424;2023-08-08T00:42:21;11.17;;;3.80;;
76063;SDS011;64762;52.006;8.424;2023-08-08T00:44:47;9.20;;;3.73;;
76063;SDS011;64762;52.006;8.424;2023-08-08T00:47:12;8.77;;;3.77;;
76063;SDS011;64762;52.006;8.424;2023-08-08T00:49:37;11.13;;;3.90;;
76063;SDS011;64762;52.006;8.424;2023-08-08T00:52:03;13.87;;;4.57;;
76063;SDS011;64762;52.006;8.424;2023-08-08T00:54:29;8.75;;;3.53;;
76063;SDS011;64762;52.006;8.424;2023-08-08T00:56:54;10.07;;;4.15;;
76063;SDS011;64762;52.006;8.424;2023-08-08T00:59:20;9.70;;;3.90;;
76063;SDS011;64762;52.006;8.424;2023-08-08T01:01:45;8.45;;;3.60;;
76063;SDS011;64762;52.006;8.424;2023-08-08T01:04:11;8.87;;;4.17;;
76063;SDS011;64762;52.006;8.424;2023-08-08T01:06:51;12.63;;;4.07;;
76063;SDS011;64762;52.006;8.424;2023-08-08T01:09:23;11.70;;;5.45;;
76063;SDS011;64762;52.006;8.424;2023-08-08T01:11:52;9.23;;;4.20;;
76063;SDS011;64762;52.006;8.424;2023-08-08T01:14:18;9.80;;;4.55;;
76063;SDS011;64762;52.006;8.424;2023-08-08T01:16:43;10.20;;;4.15;;
76063;SDS011;64762;52.006;8.424;2023-08-08T01:19:10;9.52;;;4.40;;
76063;SDS011;64762;52.006;8.424;2023-08-08T01:21:37;8.15;;;3.67;;
76063;SDS011;64762;52.006;8.424;2023-08-08T01:24:14;10.07;;;3.90;;
76063;SDS011;64762;52.006;8.424;2023-08-08T01:26:46;8.02;;;3.80;;
76063;SDS011;64762;52.006;8.424;2023-08-08T01:29:12;9.82;;;3.80;;
76063;SDS011;64762;52.006;8.424;2023-08-08T01:31:37;10.70;;;4.70;;
76063;SDS011;64762;52.006;8.424;2023-08-08T01:34:03;10.13;;;4.20;;
76063;SDS011;64762;52.006;8.424;2023-08-08T01:36:29;6.60;;;3.33;;
76063;SDS011;64762;52.006;8.424;2023-08-08T01:38:57;9.35;;;4.25;;
76063;SDS011;64762;52.006;8.424;2023-08-08T01:41:27;6.60;;;3.60;;
76063;SDS011;64762;52.006;8.424;2023-08-08T01:43:52;11.53;;;3.23;;
76063;SDS011;64762;52.006;8.424;2023-08-08T01:46:18;8.20;;;3.42;;
76063;SDS011;64762;52.006;8.424;2023-08-08T01:48:46;6.30;;;2.85;;
76063;SDS011;64762;52.006;8.424;2023-08-08T01:51:12;8.40;;;2.70;;
76063;SDS011;64762;52.006;8.424;2023-08-08T01:53:37;9.23;;;3.20;;
76063;SDS011;64762;52.006;8.424;2023-08-08T01:56:02;6.27;;;2.77;;
76063;SDS011;64762;52.006;8.424;2023-08-08T01:58:28;6.17;;;3.20;;
76063;SDS011;64762;52.006;8.424;2023-08-08T02:00:53;7.53;;;2.97;;
76063;SDS011;64762;52.006;8.424;2023-08-08T02:03:18;6.03;;;3.03;;
76063;SDS011;64762;52.006;8.424;2023-08-08T02:05:44;7.63;;;3.22;;
76063;SDS011;64762;52.006;8.424;2023-08-08T02:08:09;7.97;;;3.00;;
76063;SDS011;64762;52.006;8.424;2023-08-08T02:10:34;5.83;;;2.60;;
76063;SDS011;64762;52.006;8.424;2023-08-08T02:13:00;5.43;;;2.50;;
76063;SDS011;64762;52.006;8.424;2023-08-08T02:15:25;6.70;;;2.43;;
76063;SDS011;64762;52.006;8.424;2023-08-08T02:17:50;7.40;;;3.33;;
76063;SDS011;64762;52.006;8.424;2023-08-08T02:20:16;6.90;;;3.30;;
76063;SDS011;64762;52.006;8.424;2023-08-08T02:22:41;6.60;;;2.57;;
76063;SDS011;64762;52.006;8.424;2023-08-08T02:25:06;7.93;;;3.53;;
76063;SDS011;64762;52.006;8.424;2023-08-08T02:27:32;6.13;;;2.88;;
76063;SDS011;64762;52.006;8.424;2023-08-08T02:29:57;8.03;;;2.63;;
76063;SDS011;64762;52.006;8.424;2023-08-08T02:32:23;6.83;;;2.13;;
76063;SDS011;64762;52.006;8.424;2023-08-08T02:34:48;5.95;;;3.42;;
76063;SDS011;64762;52.006;8.424;2023-08-08T02:37:14;9.55;;;2.75;;
76063;SDS011;64762;52.006;8.424;2023-08-08T02:39:39;5.83;;;2.50;;
76063;SDS011;64762;52.006;8.424;2023-08-08T02:42:04;5.93;;;2.30;;
76063;SDS011;64762;52.006;8.424;2023-08-08T02:44:30;7.95;;;3.08;;
76063;SDS011;64762;52.006;8.424;2023-08-08T02:46:55;5.73;;;2.50;;
76063;SDS011;64762;52.006;8.424;2023-08-08T02:49:21;6.50;;;2.13;;
76063;SDS011;64762;52.006;8.424;2023-08-08T02:51:46;4.03;;;1.87;;
76063;SDS011;64762;52.006;8.424;2023-08-08T02:54:11;6.33;;;2.10;;
76063;SDS011;64762;52.006;8.424;2023-08-08T02:56:37;5.20;;;2.30;;
76063;SDS011;64762;52.006;8.424;2023-08-08T02:59:02;6.07;;;2.40;;
76063;SDS011;64762;52.006;8.424;2023-08-08T03:01:27;7.60;;;2.37;;
76063;SDS011;64762;52.006;8.424;2023-08-08T03:03:52;5.17;;;2.40;;
76063;SDS011;64762;52.006;8.424;2023-08-08T03:06:18;4.97;;;2.63;;
76063;SDS011;64762;52.006;8.424;2023-08-08T03:08:43;5.23;;;2.50;;
76063;SDS011;64762;52.006;8.424;2023-08-08T03:11:08;7.03;;;2.20;;
76063;SDS011;64762;52.006;8.424;2023-08-08T03:13:34;5.80;;;2.50;;
76063;SDS011;64762;52.006;8.424;2023-08-08T03:15:59;6.03;;;2.70;;
76063;SDS011;64762;52.006;8.424;2023-08-08T03:18:24;8.13;;;2.40;;
76063;SDS011;64762;52.006;8.424;2023-08-08T03:20:52;6.47;;;2.80;;
76063;SDS011;64762;52.006;8.424;2023-08-08T03:23:18;6.97;;;2.70;;
76063;SDS011;64762;52.006;8.424;2023-08-08T03:25:43;6.27;;;2.57;;
76063;SDS011;64762;52.006;8.424;2023-08-08T03:28:08;6.73;;;2.70;;
76063;SDS011;64762;52.006;8.424;2023-08-08T03:30:35;9.47;;;3.10;;
76063;SDS011;64762;52.006;8.424;2023-08-08T03:33:01;5.38;;;2.63;;
76063;SDS011;64762;52.006;8.424;2023-08-08T03:35:27;5.60;;;3.20;;
76063;SDS011;64762;52.006;8.424;2023-08-08T03:37:52;6.47;;;3.10;;
76063;SDS011;64762;52.006;8.424;2023-08-08T03:40:17;5.87;;;3.30;;
76063;SDS011;64762;52.006;8.424;2023-08-08T03:42:43;7.13;;;3.23;;
76063;SDS011;64762;52.006;8.424;2023-08-08T03:45:08;7.38;;;4.30;;
76063;SDS011;64762;52.006;8.424;2023-08-08T03:47:34;7.13;;;3.70;;
76063;SDS011;64762;52.006;8.424;2023-08-08T03:49:59;6.83;;;3.60;;
76063;SDS011;64762;52.006;8.424;2023-08-08T03:52:24;9.10;;;4.07;;
76063;SDS011;64762;52.006;8.424;2023-08-08T03:54:51;6.50;;;3.70;;
76063;SDS011;64762;52.006;8.424;2023-08-08T03:57:16;10.90;;;4.45;;
76063;SDS011;64762;52.006;8.424;2023-08-08T03:59:42;10.17;;;5.40;;
76063;SDS011;64762;52.006;8.424;2023-08-08T04:02:07;10.23;;;4.67;;
76063;SDS011;64762;52.006;8.424;2023-08-08T04:04:32;15.40;;;5.90;;
76063;SDS011;64762;52.006;8.424;2023-08-08T04:06:58;10.33;;;5.20;;
76063;SDS011;64762;52.006;8.424;2023-08-08T04:09:23;10.73;;;5.53;;
76063;SDS011;64762;52.006;8.424;2023-08-08T04:11:48;12.40;;;6.13;;
76063;SDS011;64762;52.006;8.424;2023-08-08T04:14:14;11.10;;;4.80;;
76063;SDS011;64762;52.006;8.424;2023-08-08T04:16:39;15.53;;;5.80;;
76063;SDS011;64762;52.006;8.424;2023-08-08T04:19:04;12.93;;;5.30;;
76063;SDS011;64762;52.006;8.424;2023-08-08T04:21:30;11.88;;;5.32;;
76063;SDS011;64762;52.006;8.424;2023-08-08T04:23:57;11.70;;;5.80;;
76063;SDS011;64762;52.006;8.424;2023-08-08T04:26:22;12.52;;;5.55;;
76063;SDS011;64762;52.006;8.424;2023-08-08T04:28:48;14.47;;;5.17;;
76063;SDS011;64762;52.006;8.424;2023-08-08T04:31:13;15.70;;;5.90;;
76063;SDS011;64762;52.006;8.424;2023-08-08T04:33:39;13.50;;;4.78;;
76063;SDS011;64762;52.006;8.424;2023-08-08T04:36:04;13.98;;;5.68;;
76063;SDS011;64762;52.006;8.424;2023-08-08T04:38:30;11.55;;;5.43;;
76063;SDS011;64762;52.006;8.424;2023-08-08T04:40:55;13.23;;;5.43;;
76063;SDS011;64762;52.006;8.424;2023-08-08T04:43:20;12.97;;;5.13;;
76063;SDS011;64762;52.006;8.424;2023-08-08T04:45:46;12.77;;;5.10;;
76063;SDS011;64762;52.006;8.424;2023-08-08T04:48:11;11.47;;;5.27;;
76063;SDS011;64762;52.006;8.424;2023-08-08T04:50:36;11.30;;;4.50;;
76063;SDS011;64762;52.006;8.424;2023-08-08T04:53:02;12.13;;;4.47;;
76063;SDS011;64762;52.006;8.424;2023-08-08T04:55:27;11.77;;;4.87;;
76063;SDS011;64762;52.006;8.424;2023-08-08T04:57:52;12.03;;;5.07;;
76063;SDS011;64762;52.006;8.424;2023-08-08T05:00:18;10.63;;;4.73;;
76063;SDS011;64762;52.006;8.424;2023-08-08T05:02:43;14.07;;;5.20;;
76063;SDS011;64762;52.006;8.424;2023-08-08T05:05:08;12.83;;;5.03;;
76063;SDS011;64762;52.006;8.424;2023-08-08T05:07:34;11.43;;;4.93;;
76063;SDS011;64762;52.006;8.424;2023-08-08T05:10:02;10.88;;;4.70;;
76063;SDS011;64762;52.006;8.424;2023-08-08T05:12:28;9.40;;;4.40;;
76063;SDS011;64762;52.006;8.424;2023-08-08T05:14:53;12.37;;;4.70;;
76063;SDS011;64762;52.006;8.424;2023-08-08T05:17:18;12.60;;;4.97;;
76063;SDS011;64762;52.006;8.424;2023-08-08T05:19:44;13.67;;;5.23;;
76063;SDS011;64762;52.006;8.424;2023-08-08T05:22:09;9.57;;;4.33;;
76063;SDS011;64762;52.006;8.424;2023-08-08T05:24:34;11.95;;;5.35;;
76063;SDS011;64762;52.006;8.424;2023-08-08T05:27:00;12.70;;;4.97;;
76063;SDS011;64762;52.006;8.424;2023-08-08T05:29:26;13.15;;;4.82;;
76063;SDS011;64762;52.006;8.424;2023-08-08T05:31:51;12.13;;;5.77;;
76063;SDS011;64762;52.006;8.424;2023-08-08T05:34:17;12.23;;;5.28;;
76063;SDS011;64762;52.006;8.424;2023-08-08T05:36:42;12.40;;;5.43;;
76063;SDS011;64762;52.006;8.424;2023-08-08T05:39:07;12.27;;;4.88;;
76063;SDS011;64762;52.006;8.424;2023-08-08T05:41:34;15.98;;;5.28;;
76063;SDS011;64762;52.006;8.424;2023-08-08T05:44:00;12.52;;;5.03;;
76063;SDS011;64762;52.006;8.424;2023-08-08T05:46:25;12.50;;;5.37;;
76063;SDS011;64762;52.006;8.424;2023-08-08T05:48:50;12.53;;;4.40;;
76063;SDS011;64762;52.006;8.424;2023-08-08T05:51:16;12.87;;;4.90;;
76063;SDS011;64762;52.006;8.424;2023-08-08T05:53:41;12.63;;;4.43;;
76063;SDS011;64762;52.006;8.424;2023-08-08T05:56:06;13.20;;;3.95;;
76063;SDS011;64762;52.006;8.424;2023-08-08T05:58:33;8.73;;;3.78;;
76063;SDS011;64762;52.006;8.424;2023-08-08T06:00:59;11.13;;;4.10;;
76063;SDS011;64762;52.006;8.424;2023-08-08T06:03:24;11.60;;;4.33;;
76063;SDS011;64762;52.006;8.424;2023-08-08T06:05:49;9.50;;;4.47;;
76063;SDS011;64762;52.006;8.424;2023-08-08T06:08:14;9.37;;;4.10;;
76063;SDS011;64762;52.006;8.424;2023-08-08T06:10:41;10.63;;;4.90;;
76063;SDS011;64762;52.006;8.424;2023-08-08T06:13:07;9.10;;;4.18;;
76063;SDS011;64762;52.006;8.424;2023-08-08T06:15:32;10.17;;;4.20;;
76063;SDS011;64762;52.006;8.424;2023-08-08T06:17:58;14.95;;;4.75;;
76063;SDS011;64762;52.006;8.424;2023-08-08T06:20:24;11.40;;;4.57;;
76063;SDS011;64762;52.006;8.424;2023-08-08T06:22:49;12.37;;;4.47;;
76063;SDS011;64762;52.006;8.424;2023-08-08T06:25:15;12.97;;;5.17;;
76063;SDS011;64762;52.006;8.424;2023-08-08T06:27:40;10.43;;;4.83;;
76063;SDS011;64762;52.006;8.424;2023-08-08T06:30:05;15.50;;;5.53;;
76063;SDS011;64762;52.006;8.424;2023-08-08T06:32:33;11.82;;;6.00;;
76063;SDS011;64762;52.006;8.424;2023-08-08T06:34:58;15.10;;;6.17;;
76063;SDS011;64762;52.006;8.424;2023-08-08T06:37:23;11.55;;;5.90;;
76063;SDS011;64762;52.006;8.424;2023-08-08T06:39:49;15.73;;;6.40;;
76063;SDS011;64762;52.006;8.424;2023-08-08T06:42:14;14.13;;;7.60;;
76063;SDS011;64762;52.006;8.424;2023-08-08T06:44:43;16.40;;;7.53;;
76063;SDS011;64762;52.006;8.424;2023-08-08T06:47:09;17.08;;;7.00;;
76063;SDS011;64762;52.006;8.424;2023-08-08T06:49:34;14.52;;;7.85;;
76063;SDS011;64762;52.006;8.424;2023-08-08T06:52:00;19.02;;;8.95;;
76063;SDS011;64762;52.006;8.424;2023-08-08T06:54:26;14.50;;;8.10;;
76063;SDS011;64762;52.006;8.424;2023-08-08T06:56:53;14.75;;;8.07;;
76063;SDS011;64762;52.006;8.424;2023-08-08T06:59:19;18.77;;;8.35;;
76063;SDS011;64762;52.006;8.424;2023-08-08T07:01:44;18.67;;;8.77;;
76063;SDS011;64762;52.006;8.424;2023-08-08T07:04:09;19.63;;;9.23;;
76063;SDS011;64762;52.006;8.424;2023-08-08T07:06:34;24.00;;;10.20;;
76063;SDS011;64762;52.006;8.424;2023-08-08T07:09:01;23.23;;;10.43;;
76063;SDS011;64762;52.006;8.424;2023-08-08T07:11:26;23.13;;;10.20;;
76063;SDS011;64762;52.006;8.424;2023-08-08T07:13:52;18.80;;;10.52;;
76063;SDS011;64762;52.006;8.424;2023-08-08T07:16:17;17.60;;;10.30;;
76063;SDS011;64762;52.006;8.424;2023-08-08T07:18:42;23.93;;;11.43;;
76063;SDS011;64762;52.006;8.424;2023-08-08T07:21:08;25.13;;;11.97;;
76063;SDS011;64762;52.006;8.424;2023-08-08T07:23:33;20.73;;;11.33;;
76063;SDS011;64762;52.006;8.424;2023-08-08T07:25:58;21.83;;;11.40;;
76063;SDS011;64762;52.006;8.424;2023-08-08T07:28:24;23.10;;;12.20;;
76063;SDS011;64762;52.006;8.424;2023-08-08T07:30:49;31.00;;;11.80;;
76063;SDS011;64762;52.006;8.424;2023-08-08T07:33:14;17.30;;;10.83;;
76063;SDS011;64762;52.006;8.424;2023-08-08T07:35:39;26.83;;;13.57;;
76063;SDS011;64762;52.006;8.424;2023-08-08T07:38:05;25.20;;;12.20;;
76063;SDS011;64762;52.006;8.424;2023-08-08T07:40:30;27.20;;;12.73;;
76063;SDS011;64762;52.006;8.424;2023-08-08T07:42:56;21.48;;;12.98;;
76063;SDS011;64762;52.006;8.424;2023-08-08T07:45:21;23.57;;;13.20;;
76063;SDS011;64762;52.006;8.424;2023-08-08T07:47:46;27.93;;;13.90;;
76063;SDS011;64762;52.006;8.424;2023-08-08T07:50:12;30.80;;;13.87;;
76063;SDS011;64762;52.006;8.424;2023-08-08T07:52:37;25.35;;;13.07;;
76063;SDS011;64762;52.006;8.424;2023-08-08T07:55:03;28.33;;;14.63;;
76063;SDS011;64762;52.006;8.424;2023-08-08T07:57:29;27.17;;;13.68;;
76063;SDS011;64762;52.006;8.424;2023-08-08T07:59:59;21.92;;;12.57;;
76063;SDS011;64762;52.006;8.424;2023-08-08T08:02:30;24.33;;;13.18;;
76063;SDS011;64762;52.006;8.424;2023-08-08T08:04:56;28.03;;;13.90;;
76063;SDS011;64762;52.006;8.424;2023-08-08T08:07:21;27.63;;;13.73;;
76063;SDS011;64762;52.006;8.424;2023-08-08T08:09:47;25.42;;;13.30;;
76063;SDS011;64762;52.006;8.424;2023-08-08T08:12:12;31.88;;;14.32;;
76063;SDS011;64762;52.006;8.424;2023-08-08T08:14:38;29.37;;;14.40;;
76063;SDS011;64762;52.006;8.424;2023-08-08T08:17:03;30.90;;;14.57;;
76063;SDS011;64762;52.006;8.424;2023-08-08T08:19:28;27.60;;;13.60;;
76063;SDS011;64762;52.006;8.424;2023-08-08T08:21:54;28.90;;;13.73;;
76063;SDS011;64762;52.006;8.424;2023-08-08T08:24:19;26.73;;;14.90;;
76063;SDS011;64762;52.006;8.424;2023-08-08T08:26:45;26.58;;;13.63;;
76063;SDS011;64762;52.006;8.424;2023-08-08T08:29:10;23.53;;;12.70;;
76063;SDS011;64762;52.006;8.424;2023-08-08T08:31:35;25.10;;;13.43;;
76063;SDS011;64762;52.006;8.424;2023-08-08T08:34:02;27.60;;;13.30;;
76063;SDS011;64762;52.006;8.424;2023-08-08T08:36:28;18.60;;;10.68;;
76063;SDS011;64762;52.006;8.424;2023-08-08T08:38:53;23.50;;;11.10;;
76063;SDS011;64762;52.006;8.424;2023-08-08T08:41:18;23.23;;;10.90;;
76063;SDS011;64762;52.006;8.424;2023-08-08T08:43:45;23.83;;;12.10;;
76063;SDS011;64762;52.006;8.424;2023-08-08T08:46:11;25.10;;;11.88;;
76063;SDS011;64762;52.006;8.424;2023-08-08T08:48:39;26.60;;;12.13;;
76063;SDS011;64762;52.006;8.424;2023-08-08T08:51:05;18.88;;;10.18;;
76063;SDS011;64762;52.006;8.424;2023-08-08T08:53:30;19.38;;;9.68;;
76063;SDS011;64762;52.006;8.424;2023-08-08T08:55:56;17.83;;;9.00;;
76063;SDS011;64762;52.006;8.424;2023-08-08T09:00:50;19.87;;;10.50;;
76063;SDS011;64762;52.006;8.424;2023-08-08T09:03:16;20.50;;;9.60;;
76063;SDS011;64762;52.006;8.424;2023-08-08T09:05:41;17.07;;;9.67;;
76063;SDS011;64762;52.006;8.424;2023-08-08T09:08:07;20.20;;;9.13;;
76063;SDS011;64762;52.006;8.424;2023-08-08T09:10:34;21.38;;;10.10;;
76063;SDS011;64762;52.006;8.424;2023-08-08T09:13:00;20.27;;;9.05;;
76063;SDS011;64762;52.006;8.424;2023-08-08T09:15:30;14.18;;;8.02;;
76063;SDS011;64762;52.006;8.424;2023-08-08T09:17:56;17.50;;;8.70;;
76063;SDS011;64762;52.006;8.424;2023-08-08T09:20:22;16.05;;;8.93;;
76063;SDS011;64762;52.006;8.424;2023-08-08T09:22:47;14.67;;;7.93;;
76063;SDS011;64762;52.006;8.424;2023-08-08T09:25:13;12.40;;;7.10;;
76063;SDS011;64762;52.006;8.424;2023-08-08T09:27:38;14.67;;;6.93;;
76063;SDS011;64762;52.006;8.424;2023-08-08T09:30:06;18.98;;;7.00;;
76063;SDS011;64762;52.006;8.424;2023-08-08T09:32:33;15.25;;;6.72;;
76063;SDS011;64762;52.006;8.424;2023-08-08T09:34:59;7.67;;;4.90;;
76063;SDS011;64762;52.006;8.424;2023-08-08T09:37:25;9.88;;;4.93;;
76063;SDS011;64762;52.006;8.424;2023-08-08T09:39:59;11.45;;;4.57;;
76063;SDS011;64762;52.006;8.424;2023-08-08T09:42:26;9.05;;;4.07;;
76063;SDS011;64762;52.006;8.424;2023-08-08T09:44:52;9.68;;;4.32;;
76063;SDS011;64762;52.006;8.424;2023-08-08T09:47:18;11.93;;;4.68;;
76063;SDS011;64762;52.006;8.424;2023-08-08T09:49:43;9.82;;;3.67;;
76063;SDS011;64762;52.006;8.424;2023-08-08T09:52:09;8.07;;;3.90;;
76063;SDS011;64762;52.006;8.424;2023-08-08T09:54:36;12.40;;;3.70;;
76063;SDS011;64762;52.006;8.424;2023-08-08T09:57:02;7.60;;;3.65;;
76063;SDS011;64762;52.006;8.424;2023-08-08T09:59:27;9.93;;;3.53;;
76063;SDS011;64762;52.006;8.424;2023-08-08T10:01:53;10.38;;;3.10;;
76063;SDS011;64762;52.006;8.424;2023-08-08T10:04:18;8.70;;;3.38;;
76063;SDS011;64762;52.006;8.424;2023-08-08T10:06:44;11.47;;;3.40;;
76063;SDS011;64762;52.006;8.424;2023-08-08T10:09:09;7.77;;;3.40;;
76063;SDS011;64762;52.006;8.424;2023-08-08T10:11:34;5.85;;;2.67;;
76063;SDS011;64762;52.006;8.424;2023-08-08T10:14:01;6.55;;;2.63;;
76063;SDS011;64762;52.006;8.424;2023-08-08T10:16:27;7.53;;;2.70;;
76063;SDS011;64762;52.006;8.424;2023-08-08T10:18:56;6.73;;;2.23;;
76063;SDS011;64762;52.006;8.424;2023-08-08T10:21:23;9.25;;;2.60;;
76063;SDS011;64762;52.006;8.424;2023-08-08T10:23:49;7.22;;;2.47;;
76063;SDS011;64762;52.006;8.424;2023-08-08T10:26:26;5.28;;;2.17;;
76063;SDS011;64762;52.006;8.424;2023-08-08T10:28:55;7.47;;;2.47;;
76063;SDS011;64762;52.006;8.424;2023-08-08T10:31:21;7.30;;;2.35;;
76063;SDS011;64762;52.006;8.424;2023-08-08T10:33:46;7.53;;;2.13;;
76063;SDS011;64762;52.006;8.424;2023-08-08T10:36:12;8.90;;;2.17;;
76063;SDS011;64762;52.006;8.424;2023-08-08T10:38:41;5.25;;;1.85;;
76063;SDS011;64762;52.006;8.424;2023-08-08T10:41:12;6.13;;;1.48;;
76063;SDS011;64762;52.006;8.424;2023-08-08T10:43:38;7.97;;;1.77;;
76063;SDS011;64762;52.006;8.424;2023-08-08T10:46:04;5.20;;;1.60;;
76063;SDS011;64762;52.006;8.424;2023-08-08T10:48:29;5.60;;;2.05;;
76063;SDS011;64762;52.006;8.424;2023-08-08T10:50:55;5.57;;;1.70;;
76063;SDS011;64762;52.006;8.424;2023-08-08T10:53:23;6.28;;;1.50;;
76063;SDS011;64762;52.006;8.424;2023-08-08T10:55:57;9.55;;;2.00;;
76063;SDS011;64762;52.006;8.424;2023-08-08T10:58:39;5.45;;;1.35;;
76063;SDS011;64762;52.006;8.424;2023-08-08T11:01:05;5.25;;;1.20;;
76063;SDS011;64762;52.006;8.424;2023-08-08T11:03:39;8.77;;;1.65;;
76063;SDS011;64762;52.006;8.424;2023-08-08T11:06:09;6.13;;;1.75;;
76063;SDS011;64762;52.006;8.424;2023-08-08T11:08:35;5.53;;;1.92;;
76063;SDS011;64762;52.006;8.424;2023-08-08T11:11:03;8.23;;;1.70;;
76063;SDS011;64762;52.006;8.424;2023-08-08T11:13:29;3.85;;;1.52;;
76063;SDS011;64762;52.006;8.424;2023-08-08T11:15:54;5.37;;;1.33;;
76063;SDS011;64762;52.006;8.424;2023-08-08T11:18:20;4.88;;;1.30;;
76063;SDS011;64762;52.006;8.424;2023-08-08T11:20:46;7.05;;;1.80;;
76063;SDS011;64762;52.006;8.424;2023-08-08T11:23:12;4.00;;;1.13;;
76063;SDS011;64762;52.006;8.424;2023-08-08T11:25:40;3.85;;;1.40;;
76063;SDS011;64762;52.006;8.424;2023-08-08T11:28:09;5.63;;;1.38;;
76063;SDS011;64762;52.006;8.424;2023-08-08T11:30:40;5.57;;;1.40;;
76063;SDS011;64762;52.006;8.424;2023-08-08T11:33:08;6.63;;;1.20;;
76063;SDS011;64762;52.006;8.424;2023-08-08T11:35:33;3.93;;;1.33;;
76063;SDS011;64762;52.006;8.424;2023-08-08T11:37:59;6.20;;;1.35;;
76063;SDS011;64762;52.006;8.424;2023-08-08T11:40:26;4.85;;;1.35;;
76063;SDS011;64762;52.006;8.424;2023-08-08T11:42:53;5.15;;;1.30;;
76063;SDS011;64762;52.006;8.424;2023-08-08T11:45:19;3.63;;;1.40;;
76063;SDS011;64762;52.006;8.424;2023-08-08T11:47:48;5.65;;;1.35;;
76063;SDS011;64762;52.006;8.424;2023-08-08T11:50:20;4.80;;;1.17;;
76063;SDS011;64762;52.006;8.424;2023-08-08T11:52:48;4.28;;;1.38;;
76063;SDS011;64762;52.006;8.424;2023-08-08T11:55:15;3.15;;;1.30;;
76063;SDS011;64762;52.006;8.424;2023-08-08T11:57:40;4.63;;;1.10;;
76063;SDS011;64762;52.006;8.424;2023-08-08T12:00:06;4.67;;;1.23;;
76063;SDS011;64762;52.006;8.424;2023-08-08T12:02:34;3.38;;;1.20;;
76063;SDS011;64762;52.006;8.424;2023-08-08T12:05:06;2.90;;;1.10;;
76063;SDS011;64762;52.006;8.424;2023-08-08T12:07:33;5.82;;;1.48;;
76063;SDS011;64762;52.006;8.424;2023-08-08T12:09:59;3.05;;;1.13;;
76063;SDS011;64762;52.006;8.424;2023-08-08T12:12:25;4.43;;;1.35;;
76063;SDS011;64762;52.006;8.424;2023-08-08T12:14:53;4.38;;;1.30;;
76063;SDS011;64762;52.006;8.424;2023-08-08T12:17:18;6.45;;;2.20;;
76063;SDS011;64762;52.006;8.424;2023-08-08T12:19:46;3.92;;;1.10;;
76063;SDS011;64762;52.006;8.424;2023-08-08T12:22:12;4.28;;;1.13;;
76063;SDS011;64762;52.006;8.424;2023-08-08T12:24:38;3.47;;;1.40;;
76063;SDS011;64762;52.006;8.424;2023-08-08T12:27:03;2.90;;;1.13;;
76063;SDS011;64762;52.006;8.424;2023-08-08T12:29:29;4.75;;;1.17;;
76063;SDS011;64762;52.006;8.424;2023-08-08T12:31:54;3.70;;;1.23;;
76063;SDS011;64762;52.006;8.424;2023-08-08T12:34:19;3.07;;;1.10;;
76063;SDS011;64762;52.006;8.424;2023-08-08T12:36:45;5.00;;;0.93;;
76063;SDS011;64762;52.006;8.424;2023-08-08T12:39:10;7.32;;;1.60;;
76063;SDS011;64762;52.006;8.424;2023-08-08T12:41:35;3.17;;;0.93;;
76063;SDS011;64762;52.006;8.424;2023-08-08T12:44:01;5.22;;;1.70;;
76063;SDS011;64762;52.006;8.424;2023-08-08T12:46:28;4.03;;;1.23;;
76063;SDS011;64762;52.006;8.424;2023-08-08T12:48:53;2.95;;;1.08;;
76063;SDS011;64762;52.006;8.424;2023-08-08T12:51:19;3.93;;;0.90;;
76063;SDS011;64762;52.006;8.424;2023-08-08T12:53:44;5.17;;;1.20;;
76063;SDS011;64762;52.006;8.424;2023-08-08T12:56:09;4.07;;;1.13;;
76063;SDS011;64762;52.006;8.424;2023-08-08T12:58:35;3.47;;;0.90;;
76063;SDS011;64762;52.006;8.424;2023-08-08T13:01:00;3.40;;;1.00;;
76063;SDS011;64762;52.006;8.424;2023-08-08T13:03:25;4.90;;;1.37;;
76063;SDS011;64762;52.006;8.424;2023-08-08T13:05:51;4.23;;;0.90;;
76063;SDS011;64762;52.006;8.424;2023-08-08T13:08:17;4.00;;;1.20;;
76063;SDS011;64762;52.006;8.424;2023-08-08T13:10:42;2.25;;;1.20;;
76063;SDS011;64762;52.006;8.424;2023-08-08T13:13:08;3.03;;;1.20;;
76063;SDS011;64762;52.006;8.424;2023-08-08T13:15:34;3.97;;;1.30;;
76063;SDS011;64762;52.006;8.424;2023-08-08T13:17:59;3.97;;;1.13;;
76063;SDS011;64762;52.006;8.424;2023-08-08T13:20:25;5.80;;;1.37;;
76063;SDS011;64762;52.006;8.424;2023-08-08T13:22:50;3.80;;;1.20;;
76063;SDS011;64762;52.006;8.424;2023-08-08T13:25:16;2.60;;;1.00;;
76063;SDS011;64762;52.006;8.424;2023-08-08T13:27:43;2.42;;;0.90;;
76063;SDS011;64762;52.006;8.424;2023-08-08T13:30:09;4.10;;;1.10;;
76063;SDS011;64762;52.006;8.424;2023-08-08T13:32:35;2.05;;;0.75;;
76063;SDS011;64762;52.006;8.424;2023-08-08T13:35:00;2.83;;;1.10;;
76063;SDS011;64762;52.006;8.424;2023-08-08T13:37:25;2.88;;;1.05;;
76063;SDS011;64762;52.006;8.424;2023-08-08T13:39:51;2.60;;;1.00;;
76063;SDS011;64762;52.006;8.424;2023-08-08T13:42:16;5.07;;;0.90;;
76063;SDS011;64762;52.006;8.424;2023-08-08T13:44:42;5.13;;;1.23;;
76063;SDS011;64762;52.006;8.424;2023-08-08T13:47:07;4.90;;;1.00;;
76063;SDS011;64762;52.006;8.424;2023-08-08T13:49:32;3.20;;;1.30;;
76063;SDS011;64762;52.006;8.424;2023-08-08T13:51:57;4.27;;;1.30;;
76063;SDS011;64762;52.006;8.424;2023-08-08T13:54:23;9.20;;;1.30;;
76063;SDS011;64762;52.006;8.424;2023-08-08T13:56:48;7.03;;;1.50;;
76063;SDS011;64762;52.006;8.424;2023-08-08T13:59:14;3.40;;;1.10;;
76063;SDS011;64762;52.006;8.424;2023-08-08T14:01:39;5.03;;;1.10;;
76063;SDS011;64762;52.006;8.424;2023-08-08T14:04:04;5.60;;;1.40;;
76063;SDS011;64762;52.006;8.424;2023-08-08T14:06:30;3.00;;;1.20;;
76063;SDS011;64762;52.006;8.424;2023-08-08T14:08:56;7.23;;;1.33;;
76063;SDS011;64762;52.006;8.424;2023-08-08T14:11:21;2.50;;;1.08;;
76063;SDS011;64762;52.006;8.424;2023-08-08T14:13:46;4.57;;;1.20;;
76063;SDS011;64762;52.006;8.424;2023-08-08T14:16:12;4.37;;;1.20;;
76063;SDS011;64762;52.006;8.424;2023-08-08T14:18:37;2.20;;;1.00;;
76063;SDS011;64762;52.006;8.424;2023-08-08T14:21:02;4.07;;;1.10;;
76063;SDS011;64762;52.006;8.424;2023-08-08T14:23:29;4.97;;;1.25;;
76063;SDS011;64762;52.006;8.424;2023-08-08T14:25:55;2.58;;;0.90;;
76063;SDS011;64762;52.006;8.424;2023-08-08T14:28:20;2.33;;;0.93;;
76063;SDS011;64762;52.006;8.424;2023-08-08T14:30:45;2.97;;;0.90;;
76063;SDS011;64762;52.006;8.424;2023-08-08T14:33:12;1.70;;;0.80;;
76063;SDS011;64762;52.006;8.424;2023-08-08T14:35:38;5.40;;;1.90;;